sensor_id;sensor_type;location;lat;lon;timestamp;pressure;altitude;pressure_sealevel;temperature;humidity
50682;BME280;36779;52.168;20.878;2022-09-14T00:01:41;99415.52;;;14.93;67.48
50682;BME280;36779;52.168;20.878;2022-09-14T00:04:13;99422.43;;;14.88;67.87
50682;BME280;36779;52.168;20.878;2022-09-14T00:06:42;99433.43;;;14.83;67.85
50682;BME280;36779;52.168;20.878;2022-09-14T00:09:15;99437.65;;;14.79;67.86
50682;BME280;36779;52.168;20.878;2022-09-14T00:11:44;99433.38;;;14.75;67.83
50682;BME280;36779;52.168;20.878;2022-09-14T00:14:13;99429.44;;;14.69;67.82
50682;BME280;36779;52.168;20.878;2022-09-14T00:16:45;99427.48;;;14.63;68.09
50682;BME280;36779;52.168;20.878;2022-09-14T00:19:19;99433.11;;;14.59;67.78
50682;BME280;36779;52.168;20.878;2022-09-14T00:21:52;99433.41;;;14.54;68.07
50682;BME280;36779;52.168;20.878;2022-09-14T00:24:25;99428.05;;;14.53;67.84
50682;BME280;36779;52.168;20.878;2022-09-14T00:26:54;99423.21;;;14.48;67.87
50682;BME280;36779;52.168;20.878;2022-09-14T00:29:25;99422.90;;;14.40;67.78
50682;BME280;36779;52.168;20.878;2022-09-14T00:31:53;99416.39;;;14.39;68.03
50682;BME280;36779;52.168;20.878;2022-09-14T00:34:22;99416.80;;;14.36;67.90
50682;BME280;36779;52.168;20.878;2022-09-14T00:36:51;99416.77;;;14.28;67.92
50682;BME280;36779;52.168;20.878;2022-09-14T00:39:22;99416.24;;;14.26;68.08
50682;BME280;36779;52.168;20.878;2022-09-14T00:41:51;99413.44;;;14.28;68.54
50682;BME280;36779;52.168;20.878;2022-09-14T00:44:58;99412.15;;;14.29;68.31
50682;BME280;36779;52.168;20.878;2022-09-14T00:47:29;99405.45;;;14.20;68.19
50682;BME280;36779;52.168;20.878;2022-09-14T00:50:00;99407.54;;;14.13;68.48
50682;BME280;36779;52.168;20.878;2022-09-14T00:52:34;99412.30;;;14.12;68.16
50682;BME280;36779;52.168;20.878;2022-09-14T00:55:08;99416.89;;;14.17;68.60
50682;BME280;36779;52.168;20.878;2022-09-14T00:57:39;99417.73;;;14.22;68.47
50682;BME280;36779;52.168;20.878;2022-09-14T01:00:13;99413.08;;;14.26;68.57
50682;BME280;36779;52.168;20.878;2022-09-14T01:02:44;99415.23;;;14.34;68.94
50682;BME280;36779;52.168;20.878;2022-09-14T01:05:13;99417.33;;;14.44;69.04
50682;BME280;36779;52.168;20.878;2022-09-14T01:11:09;99412.41;;;14.54;68.65
50682;BME280;36779;52.168;20.878;2022-09-14T01:13:46;99409.68;;;14.48;68.66
50682;BME280;36779;52.168;20.878;2022-09-14T01:16:18;99411.00;;;14.52;69.23
50682;BME280;36779;52.168;20.878;2022-09-14T01:18:52;99409.63;;;14.54;69.04
50682;BME280;36779;52.168;20.878;2022-09-14T01:21:26;99406.30;;;14.48;68.61
50682;BME280;36779;52.168;20.878;2022-09-14T01:24:04;99405.19;;;14.46;69.04
50682;BME280;36779;52.168;20.878;2022-09-14T01:26:54;99407.20;;;14.46;68.82
50682;BME280;36779;52.168;20.878;2022-09-14T01:29:30;99411.38;;;14.44;68.68
50682;BME280;36779;52.168;20.878;2022-09-14T01:32:04;99402.36;;;14.38;68.90
50682;BME280;36779;52.168;20.878;2022-09-14T01:34:38;99402.67;;;14.44;69.03
50682;BME280;36779;52.168;20.878;2022-09-14T01:37:10;99403.19;;;14.48;69.16
50682;BME280;36779;52.168;20.878;2022-09-14T01:39:49;99405.67;;;14.48;69.24
50682;BME280;36779;52.168;20.878;2022-09-14T01:42:24;99402.62;;;14.50;69.27
50682;BME280;36779;52.168;20.878;2022-09-14T01:44:58;99401.81;;;14.50;69.07
50682;BME280;36779;52.168;20.878;2022-09-14T01:47:31;99397.09;;;14.48;69.21
50682;BME280;36779;52.168;20.878;2022-09-14T01:50:06;99398.25;;;14.47;69.10
50682;BME280;36779;52.168;20.878;2022-09-14T01:52:41;99397.69;;;14.44;68.89
50682;BME280;36779;52.168;20.878;2022-09-14T01:55:14;99396.11;;;14.46;68.92
50682;BME280;36779;52.168;20.878;2022-09-14T01:57:47;99395.62;;;14.51;69.30
50682;BME280;36779;52.168;20.878;2022-09-14T02:00:19;99391.94;;;14.55;69.43
50682;BME280;36779;52.168;20.878;2022-09-14T02:02:54;99388.38;;;14.62;69.36
50682;BME280;36779;52.168;20.878;2022-09-14T02:05:29;99381.11;;;14.63;69.26
50682;BME280;36779;52.168;20.878;2022-09-14T02:07:59;99382.80;;;14.60;69.24
50682;BME280;36779;52.168;20.878;2022-09-14T02:10:28;99383.68;;;14.57;69.18
50682;BME280;36779;52.168;20.878;2022-09-14T02:12:57;99380.29;;;14.58;69.18
50682;BME280;36779;52.168;20.878;2022-09-14T02:15:26;99371.94;;;14.61;69.46
50682;BME280;36779;52.168;20.878;2022-09-14T02:17:55;99367.58;;;14.60;69.31
50682;BME280;36779;52.168;20.878;2022-09-14T02:20:26;99360.80;;;14.58;69.40
50682;BME280;36779;52.168;20.878;2022-09-14T02:22:57;99368.70;;;14.57;69.28
50682;BME280;36779;52.168;20.878;2022-09-14T02:25:27;99369.64;;;14.61;69.22
50682;BME280;36779;52.168;20.878;2022-09-14T02:27:55;99362.81;;;14.62;69.29
50682;BME280;36779;52.168;20.878;2022-09-14T02:30:23;99367.50;;;14.61;69.33
50682;BME280;36779;52.168;20.878;2022-09-14T02:33:03;99371.09;;;14.67;69.73
50682;BME280;36779;52.168;20.878;2022-09-14T02:35:39;99369.88;;;14.72;69.78
50682;BME280;36779;52.168;20.878;2022-09-14T02:38:16;99368.23;;;14.73;69.55
50682;BME280;36779;52.168;20.878;2022-09-14T02:40:54;99370.73;;;14.73;69.60
50682;BME280;36779;52.168;20.878;2022-09-14T02:43:32;99372.90;;;14.78;69.81
50682;BME280;36779;52.168;20.878;2022-09-14T02:46:11;99371.09;;;14.78;69.48
50682;BME280;36779;52.168;20.878;2022-09-14T02:48:48;99372.19;;;14.78;69.50
50682;BME280;36779;52.168;20.878;2022-09-14T02:51:26;99371.64;;;14.77;69.57
50682;BME280;36779;52.168;20.878;2022-09-14T02:54:05;99375.33;;;14.81;69.57
50682;BME280;36779;52.168;20.878;2022-09-14T02:56:36;99375.88;;;14.85;69.86
50682;BME280;36779;52.168;20.878;2022-09-14T02:59:05;99377.30;;;14.89;69.59
50682;BME280;36779;52.168;20.878;2022-09-14T03:01:33;99377.63;;;14.91;69.89
50682;BME280;36779;52.168;20.878;2022-09-14T03:04:02;99376.36;;;14.95;69.94
50682;BME280;36779;52.168;20.878;2022-09-14T03:06:31;99377.34;;;14.97;69.82
50682;BME280;36779;52.168;20.878;2022-09-14T03:09:02;99376.13;;;14.94;69.76
50682;BME280;36779;52.168;20.878;2022-09-14T03:11:31;99373.77;;;14.91;69.62
50682;BME280;36779;52.168;20.878;2022-09-14T03:13:59;99375.40;;;14.90;69.82
50682;BME280;36779;52.168;20.878;2022-09-14T03:16:28;99372.91;;;14.86;69.70
50682;BME280;36779;52.168;20.878;2022-09-14T03:18:56;99377.66;;;14.82;69.54
50682;BME280;36779;52.168;20.878;2022-09-14T03:21:25;99378.97;;;14.77;69.64
50682;BME280;36779;52.168;20.878;2022-09-14T03:23:53;99377.53;;;14.76;69.59
50682;BME280;36779;52.168;20.878;2022-09-14T03:26:24;99378.13;;;14.74;69.52
50682;BME280;36779;52.168;20.878;2022-09-14T03:28:57;99374.13;;;14.73;69.73
50682;BME280;36779;52.168;20.878;2022-09-14T03:31:26;99375.35;;;14.75;69.63
50682;BME280;36779;52.168;20.878;2022-09-14T03:33:56;99378.64;;;14.78;69.88
50682;BME280;36779;52.168;20.878;2022-09-14T03:36:27;99375.51;;;14.84;70.18
50682;BME280;36779;52.168;20.878;2022-09-14T03:38:59;99372.78;;;14.87;69.97
50682;BME280;36779;52.168;20.878;2022-09-14T03:41:29;99368.07;;;14.88;70.02
50682;BME280;36779;52.168;20.878;2022-09-14T03:43:57;99361.98;;;14.86;70.14
50682;BME280;36779;52.168;20.878;2022-09-14T03:46:26;99363.11;;;14.89;70.10
50682;BME280;36779;52.168;20.878;2022-09-14T03:48:55;99366.65;;;14.88;70.12
50682;BME280;36779;52.168;20.878;2022-09-14T03:51:24;99371.50;;;14.86;70.17
50682;BME280;36779;52.168;20.878;2022-09-14T03:53:53;99371.48;;;14.82;70.03
50682;BME280;36779;52.168;20.878;2022-09-14T03:56:22;99374.30;;;14.80;69.96
50682;BME280;36779;52.168;20.878;2022-09-14T03:58:51;99375.17;;;14.79;70.00
50682;BME280;36779;52.168;20.878;2022-09-14T04:01:20;99375.23;;;14.82;70.37
50682;BME280;36779;52.168;20.878;2022-09-14T04:03:49;99373.29;;;14.82;70.15
50682;BME280;36779;52.168;20.878;2022-09-14T04:06:19;99366.02;;;14.82;70.33
50682;BME280;36779;52.168;20.878;2022-09-14T04:08:47;99362.02;;;14.82;70.23
50682;BME280;36779;52.168;20.878;2022-09-14T04:11:20;99358.53;;;14.80;70.15
50682;BME280;36779;52.168;20.878;2022-09-14T04:13:50;99356.94;;;14.77;70.16
50682;BME280;36779;52.168;20.878;2022-09-14T04:16:22;99359.20;;;14.79;70.33
50682;BME280;36779;52.168;20.878;2022-09-14T04:18:50;99357.48;;;14.81;70.38
50682;BME280;36779;52.168;20.878;2022-09-14T04:21:21;99358.14;;;14.81;70.19
50682;BME280;36779;52.168;20.878;2022-09-14T04:23:53;99360.92;;;14.81;70.30
50682;BME280;36779;52.168;20.878;2022-09-14T04:26:43;99354.98;;;14.82;70.45
50682;BME280;36779;52.168;20.878;2022-09-14T04:29:12;99351.43;;;14.81;70.17
50682;BME280;36779;52.168;20.878;2022-09-14T04:31:41;99348.74;;;14.81;70.42
50682;BME280;36779;52.168;20.878;2022-09-14T04:34:11;99351.98;;;14.83;70.24
50682;BME280;36779;52.168;20.878;2022-09-14T04:36:40;99346.98;;;14.85;70.29
50682;BME280;36779;52.168;20.878;2022-09-14T04:39:10;99342.56;;;14.86;70.33
50682;BME280;36779;52.168;20.878;2022-09-14T04:41:40;99348.42;;;14.87;70.30
50682;BME280;36779;52.168;20.878;2022-09-14T04:44:14;99348.29;;;14.90;70.23
50682;BME280;36779;52.168;20.878;2022-09-14T04:46:44;99351.12;;;14.91;70.54
50682;BME280;36779;52.168;20.878;2022-09-14T04:49:16;99351.69;;;14.93;70.55
50682;BME280;36779;52.168;20.878;2022-09-14T04:51:48;99353.05;;;14.95;70.44
50682;BME280;36779;52.168;20.878;2022-09-14T04:54:17;99349.54;;;14.99;70.69
50682;BME280;36779;52.168;20.878;2022-09-14T04:56:46;99349.14;;;15.02;70.49
50682;BME280;36779;52.168;20.878;2022-09-14T04:59:18;99349.73;;;15.03;70.29
50682;BME280;36779;52.168;20.878;2022-09-14T05:01:47;99353.66;;;15.03;70.47
50682;BME280;36779;52.168;20.878;2022-09-14T05:04:17;99358.11;;;15.03;70.37
50682;BME280;36779;52.168;20.878;2022-09-14T05:06:45;99360.38;;;15.04;70.60
50682;BME280;36779;52.168;20.878;2022-09-14T05:09:21;99359.73;;;15.07;70.30
50682;BME280;36779;52.168;20.878;2022-09-14T05:11:50;99356.29;;;15.10;70.57
50682;BME280;36779;52.168;20.878;2022-09-14T05:14:19;99354.33;;;15.12;70.66
50682;BME280;36779;52.168;20.878;2022-09-14T05:16:48;99356.36;;;15.17;70.64
50682;BME280;36779;52.168;20.878;2022-09-14T05:19:17;99356.95;;;15.23;70.54
50682;BME280;36779;52.168;20.878;2022-09-14T05:21:46;99354.13;;;15.30;70.61
50682;BME280;36779;52.168;20.878;2022-09-14T05:24:17;99355.42;;;15.33;70.49
50682;BME280;36779;52.168;20.878;2022-09-14T05:26:52;99357.34;;;15.37;70.68
50682;BME280;36779;52.168;20.878;2022-09-14T05:29:27;99356.81;;;15.42;70.85
50682;BME280;36779;52.168;20.878;2022-09-14T05:31:59;99350.73;;;15.42;70.46
50682;BME280;36779;52.168;20.878;2022-09-14T05:34:28;99346.00;;;15.38;70.63
50682;BME280;36779;52.168;20.878;2022-09-14T05:36:57;99346.38;;;15.38;70.64
50682;BME280;36779;52.168;20.878;2022-09-14T05:39:25;99345.48;;;15.38;70.42
50682;BME280;36779;52.168;20.878;2022-09-14T05:41:54;99347.27;;;15.37;70.31
50682;BME280;36779;52.168;20.878;2022-09-14T05:44:23;99347.95;;;15.38;70.55
50682;BME280;36779;52.168;20.878;2022-09-14T05:46:51;99348.44;;;15.40;70.45
50682;BME280;36779;52.168;20.878;2022-09-14T05:49:20;99350.38;;;15.40;70.56
50682;BME280;36779;52.168;20.878;2022-09-14T05:51:48;99352.59;;;15.44;70.60
50682;BME280;36779;52.168;20.878;2022-09-14T05:54:17;99354.28;;;15.43;70.73
50682;BME280;36779;52.168;20.878;2022-09-14T05:56:46;99356.55;;;15.42;70.50
50682;BME280;36779;52.168;20.878;2022-09-14T05:59:15;99356.42;;;15.38;70.43
50682;BME280;36779;52.168;20.878;2022-09-14T06:01:44;99347.61;;;15.33;70.42
50682;BME280;36779;52.168;20.878;2022-09-14T06:04:12;99345.77;;;15.27;70.48
50682;BME280;36779;52.168;20.878;2022-09-14T06:06:41;99344.08;;;15.25;70.17
50682;BME280;36779;52.168;20.878;2022-09-14T06:09:40;99343.54;;;15.25;70.42
50682;BME280;36779;52.168;20.878;2022-09-14T06:12:09;99347.11;;;15.28;70.35
50682;BME280;36779;52.168;20.878;2022-09-14T06:14:38;99346.14;;;15.27;70.52
50682;BME280;36779;52.168;20.878;2022-09-14T06:17:07;99348.95;;;15.26;70.47
50682;BME280;36779;52.168;20.878;2022-09-14T06:19:38;99348.05;;;15.29;70.40
50682;BME280;36779;52.168;20.878;2022-09-14T06:22:07;99353.02;;;15.31;70.51
50682;BME280;36779;52.168;20.878;2022-09-14T06:24:35;99354.30;;;15.30;70.42
50682;BME280;36779;52.168;20.878;2022-09-14T06:27:04;99350.75;;;15.30;70.67
50682;BME280;36779;52.168;20.878;2022-09-14T06:29:36;99355.98;;;15.31;70.64
50682;BME280;36779;52.168;20.878;2022-09-14T06:32:05;99355.52;;;15.30;70.65
50682;BME280;36779;52.168;20.878;2022-09-14T06:34:34;99355.34;;;15.28;70.48
50682;BME280;36779;52.168;20.878;2022-09-14T06:37:02;99360.34;;;15.28;70.53
50682;BME280;36779;52.168;20.878;2022-09-14T06:39:31;99364.07;;;15.32;70.59
50682;BME280;36779;52.168;20.878;2022-09-14T06:41:59;99368.94;;;15.33;70.60
50682;BME280;36779;52.168;20.878;2022-09-14T06:44:29;99368.83;;;15.30;70.41
50682;BME280;36779;52.168;20.878;2022-09-14T06:46:58;99368.55;;;15.29;70.69
50682;BME280;36779;52.168;20.878;2022-09-14T06:49:26;99372.52;;;15.29;70.39
50682;BME280;36779;52.168;20.878;2022-09-14T06:51:54;99375.64;;;15.30;70.81
50682;BME280;36779;52.168;20.878;2022-09-14T06:54:24;99379.33;;;15.35;70.81
50682;BME280;36779;52.168;20.878;2022-09-14T06:56:53;99381.93;;;15.35;70.51
50682;BME280;36779;52.168;20.878;2022-09-14T06:59:21;99383.70;;;15.32;70.65
50682;BME280;36779;52.168;20.878;2022-09-14T07:01:49;99383.29;;;15.30;70.77
50682;BME280;36779;52.168;20.878;2022-09-14T07:04:18;99385.58;;;15.28;70.39
50682;BME280;36779;52.168;20.878;2022-09-14T07:06:48;99390.27;;;15.24;70.59
50682;BME280;36779;52.168;20.878;2022-09-14T07:09:18;99387.55;;;15.28;70.97
50682;BME280;36779;52.168;20.878;2022-09-14T07:11:46;99389.61;;;15.30;70.66
50682;BME280;36779;52.168;20.878;2022-09-14T07:14:18;99387.39;;;15.36;70.70
50682;BME280;36779;52.168;20.878;2022-09-14T07:16:47;99392.58;;;15.42;71.04
50682;BME280;36779;52.168;20.878;2022-09-14T07:19:16;99397.76;;;15.47;70.67
50682;BME280;36779;52.168;20.878;2022-09-14T07:21:46;99399.89;;;15.55;70.81
50682;BME280;36779;52.168;20.878;2022-09-14T07:24:17;99404.67;;;15.68;71.05
50682;BME280;36779;52.168;20.878;2022-09-14T07:26:46;99405.77;;;15.81;71.16
50682;BME280;36779;52.168;20.878;2022-09-14T07:29:18;99401.40;;;15.89;71.04
50682;BME280;36779;52.168;20.878;2022-09-14T07:31:49;99398.63;;;16.04;71.12
50682;BME280;36779;52.168;20.878;2022-09-14T07:34:18;99403.08;;;16.14;70.70
50682;BME280;36779;52.168;20.878;2022-09-14T07:36:46;99400.02;;;16.20;70.88
50682;BME280;36779;52.168;20.878;2022-09-14T07:39:16;99395.91;;;16.31;70.95
50682;BME280;36779;52.168;20.878;2022-09-14T07:41:45;99394.98;;;16.40;70.97
50682;BME280;36779;52.168;20.878;2022-09-14T07:44:15;99396.09;;;16.51;70.95
50682;BME280;36779;52.168;20.878;2022-09-14T07:46:45;99391.20;;;16.58;70.92
50682;BME280;36779;52.168;20.878;2022-09-14T07:49:15;99392.38;;;16.54;70.44
50682;BME280;36779;52.168;20.878;2022-09-14T07:51:44;99392.67;;;16.47;70.46
50682;BME280;36779;52.168;20.878;2022-09-14T07:54:15;99391.69;;;16.49;70.46
50682;BME280;36779;52.168;20.878;2022-09-14T07:56:44;99390.58;;;16.52;70.60
50682;BME280;36779;52.168;20.878;2022-09-14T07:59:17;99389.47;;;16.61;70.79
50682;BME280;36779;52.168;20.878;2022-09-14T08:02:07;99390.77;;;16.71;70.58
50682;BME280;36779;52.168;20.878;2022-09-14T08:04:36;99394.78;;;16.77;70.45
50682;BME280;36779;52.168;20.878;2022-09-14T08:07:06;99395.45;;;16.80;70.40
50682;BME280;36779;52.168;20.878;2022-09-14T08:09:35;99403.52;;;16.82;70.29
50682;BME280;36779;52.168;20.878;2022-09-14T08:12:04;99400.80;;;16.88;70.34
50682;BME280;36779;52.168;20.878;2022-09-14T08:14:33;99402.55;;;16.91;70.25
50682;BME280;36779;52.168;20.878;2022-09-14T08:17:02;99399.98;;;16.90;70.22
50682;BME280;36779;52.168;20.878;2022-09-14T08:19:30;99394.48;;;17.14;70.96
50682;BME280;36779;52.168;20.878;2022-09-14T08:21:59;99394.75;;;17.60;71.32
50682;BME280;36779;52.168;20.878;2022-09-14T08:24:27;99389.45;;;18.24;71.85
50682;BME280;36779;52.168;20.878;2022-09-14T08:26:56;99391.16;;;18.81;71.21
50682;BME280;36779;52.168;20.878;2022-09-14T08:29:24;99387.97;;;18.97;70.14
50682;BME280;36779;52.168;20.878;2022-09-14T08:31:52;99397.16;;;18.97;69.61
50682;BME280;36779;52.168;20.878;2022-09-14T08:34:21;99399.16;;;18.84;69.20
50682;BME280;36779;52.168;20.878;2022-09-14T08:36:50;99403.20;;;18.75;69.27
50682;BME280;36779;52.168;20.878;2022-09-14T08:39:18;99397.88;;;18.79;69.60
50682;BME280;36779;52.168;20.878;2022-09-14T08:41:51;99394.63;;;18.81;69.49
50682;BME280;36779;52.168;20.878;2022-09-14T08:44:24;99394.42;;;18.69;69.17
50682;BME280;36779;52.168;20.878;2022-09-14T08:46:58;99388.42;;;18.43;68.85
50682;BME280;36779;52.168;20.878;2022-09-14T08:49:37;99389.95;;;18.21;68.82
50682;BME280;36779;52.168;20.878;2022-09-14T08:52:13;99389.26;;;18.24;69.66
50682;BME280;36779;52.168;20.878;2022-09-14T08:54:53;99385.59;;;18.76;70.30
50682;BME280;36779;52.168;20.878;2022-09-14T08:57:27;99383.60;;;19.30;70.02
50682;BME280;36779;52.168;20.878;2022-09-14T09:00:05;99387.36;;;19.76;69.62
50682;BME280;36779;52.168;20.878;2022-09-14T09:02:57;99386.68;;;20.22;69.46
50682;BME280;36779;52.168;20.878;2022-09-14T09:05:37;99388.55;;;20.51;69.00
50682;BME280;36779;52.168;20.878;2022-09-14T09:08:22;99386.66;;;20.96;69.10
50682;BME280;36779;52.168;20.878;2022-09-14T09:10:53;99381.20;;;21.28;68.57
50682;BME280;36779;52.168;20.878;2022-09-14T09:13:26;99379.88;;;21.36;67.97
50682;BME280;36779;52.168;20.878;2022-09-14T09:15:59;99380.42;;;21.27;67.81
50682;BME280;36779;52.168;20.878;2022-09-14T09:18:36;99381.46;;;21.33;67.69
50682;BME280;36779;52.168;20.878;2022-09-14T09:21:09;99380.88;;;21.17;67.04
50682;BME280;36779;52.168;20.878;2022-09-14T09:23:39;99381.39;;;20.94;67.08
50682;BME280;36779;52.168;20.878;2022-09-14T09:26:15;99376.08;;;20.70;66.65
50682;BME280;36779;52.168;20.878;2022-09-14T09:28:46;99372.64;;;20.43;66.94
50682;BME280;36779;52.168;20.878;2022-09-14T09:31:21;99374.80;;;20.39;66.99
50682;BME280;36779;52.168;20.878;2022-09-14T09:34:26;99375.94;;;20.16;66.56
50682;BME280;36779;52.168;20.878;2022-09-14T09:37:13;99376.17;;;19.83;66.45
50682;BME280;36779;52.168;20.878;2022-09-14T09:39:43;99376.74;;;19.68;66.94
50682;BME280;36779;52.168;20.878;2022-09-14T09:42:14;99378.58;;;19.62;67.21
50682;BME280;36779;52.168;20.878;2022-09-14T09:44:56;99380.37;;;19.71;67.51
50682;BME280;36779;52.168;20.878;2022-09-14T09:47:45;99383.48;;;20.05;68.09
50682;BME280;36779;52.168;20.878;2022-09-14T09:50:19;99379.17;;;20.38;68.15
50682;BME280;36779;52.168;20.878;2022-09-14T09:52:51;99374.70;;;20.70;68.01
50682;BME280;36779;52.168;20.878;2022-09-14T09:55:21;99374.91;;;20.91;67.62
50682;BME280;36779;52.168;20.878;2022-09-14T09:58:21;99377.10;;;20.99;67.17
50682;BME280;36779;52.168;20.878;2022-09-14T10:01:18;99373.70;;;20.79;66.49
50682;BME280;36779;52.168;20.878;2022-09-14T10:04:02;99378.77;;;20.56;66.12
50682;BME280;36779;52.168;20.878;2022-09-14T10:06:42;99379.09;;;20.52;66.70
50682;BME280;36779;52.168;20.878;2022-09-14T10:09:23;99379.84;;;20.77;67.19
50682;BME280;36779;52.168;20.878;2022-09-14T10:12:09;99373.88;;;21.13;67.31
50682;BME280;36779;52.168;20.878;2022-09-14T10:15:20;99376.39;;;21.39;66.93
50682;BME280;36779;52.168;20.878;2022-09-14T10:18:18;99376.77;;;21.53;66.43
50682;BME280;36779;52.168;20.878;2022-09-14T10:21:06;99376.98;;;21.66;66.41
50682;BME280;36779;52.168;20.878;2022-09-14T10:23:38;99375.91;;;21.84;66.28
50682;BME280;36779;52.168;20.878;2022-09-14T10:26:22;99378.13;;;21.96;66.14
50682;BME280;36779;52.168;20.878;2022-09-14T10:28:52;99376.26;;;22.14;66.10
50682;BME280;36779;52.168;20.878;2022-09-14T10:31:34;99375.55;;;22.32;65.96
50682;BME280;36779;52.168;20.878;2022-09-14T10:34:24;99378.61;;;22.49;65.55
50682;BME280;36779;52.168;20.878;2022-09-14T10:36:59;99374.33;;;22.65;65.74
50682;BME280;36779;52.168;20.878;2022-09-14T10:39:49;99376.63;;;22.95;65.71
50682;BME280;36779;52.168;20.878;2022-09-14T10:42:33;99373.38;;;23.23;65.70
50682;BME280;36779;52.168;20.878;2022-09-14T10:45:28;99378.71;;;23.41;65.08
50682;BME280;36779;52.168;20.878;2022-09-14T10:48:35;99377.13;;;23.43;64.56
50682;BME280;36779;52.168;20.878;2022-09-14T10:51:38;99375.55;;;23.28;64.24
50682;BME280;36779;52.168;20.878;2022-09-14T10:54:52;99381.50;;;22.95;63.12
50682;BME280;36779;52.168;20.878;2022-09-14T10:57:45;99376.35;;;22.65;63.34
50682;BME280;36779;52.168;20.878;2022-09-14T11:00:17;99380.87;;;22.56;63.36
50682;BME280;36779;52.168;20.878;2022-09-14T11:03:25;99382.92;;;22.51;63.39
50682;BME280;36779;52.168;20.878;2022-09-14T11:06:13;99379.02;;;22.31;62.79
50682;BME280;36779;52.168;20.878;2022-09-14T11:08:55;99378.44;;;22.02;62.65
50682;BME280;36779;52.168;20.878;2022-09-14T11:11:40;99377.86;;;21.97;63.03
50682;BME280;36779;52.168;20.878;2022-09-14T11:14:28;99374.85;;;21.84;62.68
50682;BME280;36779;52.168;20.878;2022-09-14T11:17:21;99377.38;;;21.54;62.38
50682;BME280;36779;52.168;20.878;2022-09-14T11:20:03;99377.45;;;21.28;62.30
50682;BME280;36779;52.168;20.878;2022-09-14T11:22:43;99381.95;;;21.02;62.24
50682;BME280;36779;52.168;20.878;2022-09-14T11:25:38;99382.88;;;20.88;62.46
50682;BME280;36779;52.168;20.878;2022-09-14T11:28:15;99382.52;;;20.74;62.50
50682;BME280;36779;52.168;20.878;2022-09-14T11:30:49;99379.11;;;20.75;62.94
50682;BME280;36779;52.168;20.878;2022-09-14T11:33:22;99377.70;;;20.94;63.29
50682;BME280;36779;52.168;20.878;2022-09-14T11:36:06;99369.87;;;21.18;63.41
50682;BME280;36779;52.168;20.878;2022-09-14T11:38:45;99365.54;;;21.41;63.40
50682;BME280;36779;52.168;20.878;2022-09-14T11:41:23;99362.75;;;21.62;63.37
50682;BME280;36779;52.168;20.878;2022-09-14T11:43:57;99359.48;;;21.75;63.17
50682;BME280;36779;52.168;20.878;2022-09-14T11:46:33;99359.36;;;21.91;63.28
50682;BME280;36779;52.168;20.878;2022-09-14T11:49:12;99359.58;;;22.06;63.01
50682;BME280;36779;52.168;20.878;2022-09-14T11:51:49;99354.68;;;22.19;63.06
50682;BME280;36779;52.168;20.878;2022-09-14T11:54:21;99355.99;;;22.29;62.68
50682;BME280;36779;52.168;20.878;2022-09-14T11:56:52;99361.69;;;22.30;62.55
50682;BME280;36779;52.168;20.878;2022-09-14T11:59:44;99361.36;;;22.28;62.28
50682;BME280;36779;52.168;20.878;2022-09-14T12:02:58;99360.56;;;22.21;61.91
50682;BME280;36779;52.168;20.878;2022-09-14T12:05:37;99366.12;;;22.16;62.05
50682;BME280;36779;52.168;20.878;2022-09-14T12:11:24;99357.89;;;22.15;61.81
50682;BME280;36779;52.168;20.878;2022-09-14T12:14:26;99351.15;;;22.13;61.84
50682;BME280;36779;52.168;20.878;2022-09-14T12:17:16;99349.89;;;22.17;61.70
50682;BME280;36779;52.168;20.878;2022-09-14T12:20:32;99347.43;;;22.15;61.62
50682;BME280;36779;52.168;20.878;2022-09-14T12:23:18;99348.81;;;22.12;61.38
50682;BME280;36779;52.168;20.878;2022-09-14T12:26:14;99347.91;;;22.07;61.29
50682;BME280;36779;52.168;20.878;2022-09-14T12:28:56;99348.02;;;21.98;61.01
50682;BME280;36779;52.168;20.878;2022-09-14T12:31:58;99346.63;;;21.80;60.62
50682;BME280;36779;52.168;20.878;2022-09-14T12:34:30;99346.36;;;21.53;60.31
50682;BME280;36779;52.168;20.878;2022-09-14T12:37:28;99341.61;;;21.28;60.21
50682;BME280;36779;52.168;20.878;2022-09-14T12:46:38;99339.67;;;20.79;60.51
50682;BME280;36779;52.168;20.878;2022-09-14T12:49:28;99337.86;;;20.82;60.51
50682;BME280;36779;52.168;20.878;2022-09-14T12:52:09;99340.92;;;20.74;60.25
50682;BME280;36779;52.168;20.878;2022-09-14T12:54:58;99342.85;;;20.63;60.23
50682;BME280;36779;52.168;20.878;2022-09-14T12:57:38;99343.79;;;20.59;60.38
50682;BME280;36779;52.168;20.878;2022-09-14T13:00:13;99342.92;;;20.59;60.32
50682;BME280;36779;52.168;20.878;2022-09-14T13:03:12;99336.15;;;20.59;60.33
50682;BME280;36779;52.168;20.878;2022-09-14T13:05:44;99336.52;;;20.58;60.29
50682;BME280;36779;52.168;20.878;2022-09-14T13:08:18;99334.61;;;20.57;60.36
50682;BME280;36779;52.168;20.878;2022-09-14T13:10:50;99334.92;;;20.60;60.42
50682;BME280;36779;52.168;20.878;2022-09-14T13:13:31;99334.16;;;20.62;60.22
50682;BME280;36779;52.168;20.878;2022-09-14T13:16:05;99335.95;;;20.60;60.11
50682;BME280;36779;52.168;20.878;2022-09-14T13:18:36;99337.38;;;20.50;60.04
50682;BME280;36779;52.168;20.878;2022-09-14T13:21:17;99338.33;;;20.36;59.85
50682;BME280;36779;52.168;20.878;2022-09-14T13:23:46;99342.20;;;20.20;59.85
50682;BME280;36779;52.168;20.878;2022-09-14T13:26:19;99345.61;;;20.09;59.85
50682;BME280;36779;52.168;20.878;2022-09-14T13:28:52;99347.52;;;19.99;59.69
50682;BME280;36779;52.168;20.878;2022-09-14T13:31:27;99339.88;;;19.86;59.72
50682;BME280;36779;52.168;20.878;2022-09-14T13:34:02;99336.43;;;19.80;59.91
50682;BME280;36779;52.168;20.878;2022-09-14T13:36:42;99332.07;;;19.74;59.82
50682;BME280;36779;52.168;20.878;2022-09-14T13:39:23;99330.34;;;19.70;59.79
50682;BME280;36779;52.168;20.878;2022-09-14T13:41:54;99323.88;;;19.69;59.92
50682;BME280;36779;52.168;20.878;2022-09-14T13:44:31;99320.24;;;19.68;59.90